createdAt,value
2016-08-23T00:00:06.562Z,16.9
2016-08-23T00:00:16.557Z,17
2016-08-23T00:00:26.552Z,17
2016-08-23T00:00:36.549Z,17
2016-08-23T00:00:46.544Z,16.9
2016-08-23T00:00:56.538Z,16.9
2016-08-23T00:01:06.533Z,17
2016-08-23T00:01:16.528Z,17
2016-08-23T00:01:26.524Z,16.9
2016-08-23T00:01:36.520Z,17
2016-08-23T00:01:46.513Z,17
2016-08-23T00:01:56.509Z,17
2016-08-23T00:02:06.503Z,17
2016-08-23T00:02:16.499Z,17
2016-08-23T00:02:26.496Z,16.9
2016-08-23T00:02:36.488Z,16.9
2016-08-23T00:02:46.483Z,17
2016-08-23T00:02:56.479Z,17
2016-08-23T00:03:06.472Z,17
2016-08-23T00:03:16.470Z,16.9
2016-08-23T00:03:26.465Z,16.9
2016-08-23T00:03:36.461Z,16.9
2016-08-23T00:03:46.456Z,16.9
2016-08-23T00:03:56.451Z,16.9
2016-08-23T00:04:06.446Z,16.9
2016-08-23T00:04:16.441Z,16.9
2016-08-23T00:04:26.437Z,16.9
2016-08-23T00:04:36.431Z,17
2016-08-23T00:04:46.426Z,16.9
2016-08-23T00:04:56.422Z,16.8
2016-08-23T00:05:06.416Z,16.9
2016-08-23T00:05:16.411Z,16.9
2016-08-23T00:05:26.406Z,16.9
2016-08-23T00:05:36.403Z,16.9
2016-08-23T00:05:46.396Z,16.9
2016-08-23T00:05:56.392Z,16.9
2016-08-23T00:06:06.387Z,16.9
2016-08-23T00:06:16.383Z,16.9
2016-08-23T00:06:26.378Z,16.9
2016-08-23T00:06:36.372Z,16.9
2016-08-23T00:06:46.369Z,16.8
2016-08-23T00:06:56.366Z,16.8
2016-08-23T00:07:06.358Z,16.8
2016-08-23T00:07:16.354Z,16.8
2016-08-23T00:07:26.348Z,16.8
2016-08-23T00:07:36.344Z,16.9
2016-08-23T00:07:46.339Z,16.8
2016-08-23T00:07:56.334Z,16.8
2016-08-23T00:08:06.329Z,16.8
2016-08-23T00:08:16.324Z,16.9
2016-08-23T00:08:26.318Z,16.8
2016-08-23T00:08:36.315Z,16.8
2016-08-23T00:08:46.310Z,16.9
2016-08-23T00:08:56.305Z,16.9
2016-08-23T00:09:06.299Z,16.9
2016-08-23T00:09:16.293Z,16.9
2016-08-23T00:09:26.290Z,16.8
2016-08-23T00:09:36.286Z,16.8
2016-08-23T00:09:46.281Z,17
2016-08-23T00:09:56.276Z,16.8
2016-08-23T00:10:06.271Z,16.8
2016-08-23T00:10:16.267Z,16.8
2016-08-23T00:10:26.262Z,16.8
2016-08-23T00:10:36.256Z,16.9
2016-08-23T00:10:46.252Z,16.8
2016-08-23T00:10:56.248Z,16.9
2016-08-23T00:11:06.242Z,16.8
2016-08-23T00:11:16.238Z,16.8
2016-08-23T00:11:26.232Z,16.9
2016-08-23T00:11:36.228Z,16.9
2016-08-23T00:11:46.223Z,16.9
2016-08-23T00:11:56.217Z,16.9
2016-08-23T00:12:06.213Z,16.9
2016-08-23T00:12:16.208Z,16.9
2016-08-23T00:12:26.203Z,16.9
2016-08-23T00:12:36.199Z,16.8
2016-08-23T00:12:46.193Z,16.8
2016-08-23T00:12:56.188Z,16.9
2016-08-23T00:13:06.185Z,16.8
2016-08-23T00:13:16.181Z,16.9
2016-08-23T00:13:26.182Z,16.9
2016-08-23T00:13:36.170Z,17
2016-08-23T00:13:46.164Z,16.8
2016-08-23T00:13:56.160Z,16.9
2016-08-23T00:14:06.155Z,16.8
2016-08-23T00:14:16.149Z,16.9
2016-08-23T00:14:26.145Z,16.8
2016-08-23T00:14:36.141Z,16.9
2016-08-23T00:14:46.135Z,16.8
2016-08-23T00:14:56.132Z,16.8
2016-08-23T00:15:06.126Z,16.9
2016-08-23T00:15:16.121Z,16.9
2016-08-23T00:15:26.115Z,16.8
2016-08-23T00:15:36.112Z,16.9
2016-08-23T00:15:46.116Z,16.9
2016-08-23T00:15:56.102Z,16.8
2016-08-23T00:16:06.096Z,16.9
2016-08-23T00:16:16.093Z,16.9
2016-08-23T00:16:26.089Z,16.8
2016-08-23T00:16:36.083Z,16.8
2016-08-23T00:16:46.077Z,16.9
2016-08-23T00:16:56.072Z,16.9
2016-08-23T00:17:06.069Z,16.9
2016-08-23T00:17:16.069Z,16.9
2016-08-23T00:17:26.059Z,16.8
2016-08-23T00:17:36.054Z,16.9
2016-08-23T00:17:46.049Z,16.8
2016-08-23T00:17:56.044Z,16.9
2016-08-23T00:18:06.039Z,16.8
2016-08-23T00:18:16.033Z,16.9
2016-08-23T00:18:26.028Z,16.9
2016-08-23T00:18:36.024Z,16.9
2016-08-23T00:18:46.019Z,16.8
2016-08-23T00:18:56.015Z,16.9
2016-08-23T00:19:06.010Z,16.8
2016-08-23T00:19:16.004Z,16.8
2016-08-23T00:19:26.001Z,16.9
2016-08-23T00:19:35.995Z,16.9
2016-08-23T00:19:45.992Z,16.8
2016-08-23T00:19:55.985Z,16.9
2016-08-23T00:20:05.980Z,16.9
2016-08-23T00:20:15.978Z,17
2016-08-23T00:20:25.971Z,16.9
2016-08-23T00:20:35.967Z,16.9
2016-08-23T00:20:45.962Z,16.8
2016-08-23T00:20:55.956Z,16.8
2016-08-23T00:21:05.956Z,16.7
2016-08-23T00:21:15.946Z,16.9
2016-08-23T00:21:25.941Z,16.9
2016-08-23T00:21:35.935Z,16.8
2016-08-23T00:21:45.932Z,16.9
2016-08-23T00:21:55.927Z,16.9
2016-08-23T00:22:05.921Z,16.9
2016-08-23T00:22:15.918Z,16.9
2016-08-23T00:22:25.912Z,16.9
2016-08-23T00:22:35.908Z,16.8
2016-08-23T00:22:45.903Z,16.9
2016-08-23T00:22:55.898Z,16.9
2016-08-23T00:23:05.893Z,16.9
2016-08-23T00:23:15.889Z,16.9
2016-08-23T00:23:25.883Z,16.9
2016-08-23T00:23:35.879Z,16.8
2016-08-23T00:23:45.874Z,16.9
2016-08-23T00:23:55.869Z,16.8
2016-08-23T00:24:05.865Z,16.8
2016-08-23T00:24:15.860Z,16.8
2016-08-23T00:24:25.855Z,16.9
2016-08-23T00:24:35.848Z,16.9
2016-08-23T00:24:45.844Z,16.8
2016-08-23T00:24:55.840Z,16.7
2016-08-23T00:25:05.836Z,16.8
2016-08-23T00:25:15.829Z,16.8
2016-08-23T00:25:25.824Z,16.7
2016-08-23T00:25:35.828Z,16.8
2016-08-23T00:25:45.816Z,16.7
2016-08-23T00:25:55.809Z,16.9
2016-08-23T00:26:05.805Z,16.8
2016-08-23T00:26:15.802Z,16.8
2016-08-23T00:26:25.796Z,16.8
2016-08-23T00:26:35.792Z,16.8
2016-08-23T00:26:45.786Z,16.7
2016-08-23T00:26:55.782Z,16.7
2016-08-23T00:27:05.776Z,16.8
2016-08-23T00:27:15.772Z,16.8
2016-08-23T00:27:25.767Z,16.8
2016-08-23T00:27:35.761Z,16.7
2016-08-23T00:27:45.757Z,16.7
2016-08-23T00:27:55.753Z,16.7
2016-08-23T00:28:05.747Z,16.7
2016-08-23T00:28:15.743Z,16.8
2016-08-23T00:28:25.738Z,16.8
2016-08-23T00:28:35.733Z,16.8
2016-08-23T00:28:45.728Z,16.8
2016-08-23T00:28:55.722Z,16.7
2016-08-23T00:29:05.719Z,16.7
2016-08-23T00:29:15.714Z,16.8
2016-08-23T00:29:25.709Z,16.7
2016-08-23T00:29:35.705Z,16.8
2016-08-23T00:29:45.699Z,16.7
2016-08-23T00:29:55.695Z,16.8
2016-08-23T00:30:05.691Z,16.7
2016-08-23T00:30:15.689Z,16.8
2016-08-23T00:30:25.680Z,16.8
2016-08-23T00:30:35.674Z,16.9
2016-08-23T00:30:45.669Z,16.8
2016-08-23T00:30:55.665Z,16.8
2016-08-23T00:31:05.659Z,16.8
2016-08-23T00:31:15.655Z,16.8
2016-08-23T00:31:25.650Z,16.9
2016-08-23T00:31:35.646Z,16.9
2016-08-23T00:31:45.641Z,16.8
2016-08-23T00:31:55.635Z,16.9
2016-08-23T00:32:05.631Z,16.8
2016-08-23T00:32:15.627Z,16.8
2016-08-23T00:32:25.622Z,16.8
2016-08-23T00:32:35.617Z,16.8
2016-08-23T00:32:45.611Z,16.8
2016-08-23T00:32:55.607Z,16.7
2016-08-23T00:33:05.604Z,16.7
2016-08-23T00:33:15.596Z,16.8
2016-08-23T00:33:25.593Z,16.8
2016-08-23T00:33:35.587Z,16.8
2016-08-23T00:33:45.586Z,16.8
2016-08-23T00:33:55.576Z,16.9
2016-08-23T00:34:05.573Z,16.9
2016-08-23T00:34:15.568Z,16.8
2016-08-23T00:34:25.563Z,16.8
2016-08-23T00:34:35.562Z,16.8
2016-08-23T00:34:45.553Z,16.8
2016-08-23T00:34:55.549Z,16.8
2016-08-23T00:35:05.543Z,16.8
2016-08-23T00:35:15.539Z,16.8
2016-08-23T00:35:25.533Z,16.8
2016-08-23T00:35:35.529Z,16.7
2016-08-23T00:35:45.526Z,16.8
2016-08-23T00:35:55.523Z,16.9
2016-08-23T00:36:05.516Z,16.9
2016-08-23T00:36:15.511Z,16.7
2016-08-23T00:36:25.507Z,16.8
2016-08-23T00:36:35.501Z,16.8
2016-08-23T00:36:45.496Z,16.8
2016-08-23T00:36:55.490Z,16.8
2016-08-23T00:37:05.486Z,16.9
2016-08-23T00:37:15.481Z,16.9
2016-08-23T00:37:25.476Z,16.9
2016-08-23T00:37:35.471Z,16.9
2016-08-23T00:37:45.466Z,16.9
2016-08-23T00:37:55.461Z,16.8
2016-08-23T00:38:05.457Z,16.8
2016-08-23T00:38:15.451Z,16.9
2016-08-23T00:38:25.446Z,16.8
2016-08-23T00:38:35.441Z,16.8
2016-08-23T00:38:45.437Z,16.8
2016-08-23T00:38:55.433Z,16.9
2016-08-23T00:39:05.429Z,16.8
2016-08-23T00:39:15.425Z,17
2016-08-23T00:39:25.417Z,17
2016-08-23T00:39:35.414Z,16.9
2016-08-23T00:39:45.408Z,16.9
2016-08-23T00:39:55.403Z,16.9
2016-08-23T00:40:05.398Z,16.8
2016-08-23T00:40:15.398Z,16.9
2016-08-23T00:40:25.389Z,17
2016-08-23T00:40:35.385Z,17
2016-08-23T00:40:45.378Z,17
2016-08-23T00:40:55.375Z,17
2016-08-23T00:41:05.370Z,16.9
2016-08-23T00:41:15.364Z,17
2016-08-23T00:41:25.359Z,17
2016-08-23T00:41:35.355Z,16.9
2016-08-23T00:41:45.349Z,17
2016-08-23T00:41:55.345Z,17
2016-08-23T00:42:05.341Z,17
2016-08-23T00:42:15.335Z,17
2016-08-23T00:42:25.331Z,17
2016-08-23T00:42:35.326Z,17
2016-08-23T00:42:45.322Z,17
2016-08-23T00:42:55.315Z,17
2016-08-23T00:43:05.311Z,17
2016-08-23T00:43:15.307Z,16.9
2016-08-23T00:43:25.302Z,17
2016-08-23T00:43:35.296Z,16.9
2016-08-23T00:43:45.294Z,17
2016-08-23T00:43:55.287Z,16.9
2016-08-23T00:44:05.285Z,17
2016-08-23T00:44:15.276Z,17
2016-08-23T00:44:25.272Z,17
2016-08-23T00:44:35.267Z,17
2016-08-23T00:44:45.262Z,17
2016-08-23T00:44:55.257Z,17
2016-08-23T00:45:05.253Z,16.9
2016-08-23T00:45:15.248Z,17
2016-08-23T00:45:25.244Z,17
2016-08-23T00:45:35.239Z,17
2016-08-23T00:45:45.233Z,17
2016-08-23T00:45:55.229Z,17
2016-08-23T00:46:05.222Z,17
2016-08-23T00:46:15.219Z,17
2016-08-23T00:46:25.215Z,17
2016-08-23T00:46:35.209Z,17
2016-08-23T00:46:45.205Z,17
2016-08-23T00:46:55.201Z,17
2016-08-23T00:47:05.193Z,17
2016-08-23T00:47:15.190Z,17
2016-08-23T00:47:25.183Z,17
2016-08-23T00:47:35.179Z,17
2016-08-23T00:47:45.175Z,17
2016-08-23T00:47:55.170Z,17
2016-08-23T00:48:05.166Z,17
2016-08-23T00:48:15.162Z,17.1
2016-08-23T00:48:25.156Z,17.1
2016-08-23T00:48:35.151Z,17.1
2016-08-23T00:48:45.147Z,17.1
2016-08-23T00:48:55.142Z,17.1
2016-08-23T00:49:05.138Z,17.1
2016-08-23T00:49:15.131Z,17.1
2016-08-23T00:49:25.127Z,17.1
2016-08-23T00:49:35.121Z,17.1
2016-08-23T00:49:45.118Z,17.1
2016-08-23T00:49:55.114Z,17.1
2016-08-23T00:50:05.107Z,17
2016-08-23T00:50:15.112Z,17.1
2016-08-23T00:50:25.098Z,17.1
2016-08-23T00:50:35.092Z,17.1
2016-08-23T00:50:45.087Z,17
2016-08-23T00:50:55.082Z,17.1
2016-08-23T00:51:05.077Z,17.1
2016-08-23T00:51:15.072Z,17
2016-08-23T00:51:25.069Z,17.1
2016-08-23T00:51:35.065Z,17.1
2016-08-23T00:51:45.059Z,17.1
2016-08-23T00:51:55.055Z,17
2016-08-23T00:52:05.049Z,17
2016-08-23T00:52:15.046Z,17.1
2016-08-23T00:52:25.039Z,17.1
2016-08-23T00:52:35.036Z,17.1
2016-08-23T00:52:45.029Z,17.1
2016-08-23T00:52:55.026Z,17.1
2016-08-23T00:53:05.024Z,17.1
2016-08-23T00:53:15.014Z,17.1
2016-08-23T00:53:25.010Z,17
2016-08-23T00:53:35.005Z,17.1
2016-08-23T00:53:45.000Z,17.1
2016-08-23T00:53:54.996Z,17.1
2016-08-23T00:54:04.990Z,17.2
2016-08-23T00:54:14.985Z,17.2
2016-08-23T00:54:24.982Z,17.2
2016-08-23T00:54:34.976Z,17
2016-08-23T00:54:44.971Z,17.1
2016-08-23T00:54:54.968Z,17.2
2016-08-23T00:55:04.967Z,17.1
2016-08-23T00:55:14.957Z,17.1
2016-08-23T00:55:24.952Z,17.1
2016-08-23T00:55:34.947Z,17.2
2016-08-23T00:55:44.943Z,17.2
2016-08-23T00:55:54.936Z,17.2
2016-08-23T00:56:04.934Z,17
2016-08-23T00:56:14.929Z,17.1
2016-08-23T00:56:24.922Z,17
2016-08-23T00:56:34.919Z,17.2
2016-08-23T00:56:44.913Z,17.1
2016-08-23T00:56:54.907Z,17.1
2016-08-23T00:57:04.910Z,17.1
2016-08-23T00:57:14.898Z,17.2
2016-08-23T00:57:24.893Z,17.2
2016-08-23T00:57:34.890Z,17.2
2016-08-23T00:57:44.884Z,17.2
2016-08-23T00:57:54.879Z,17.2
2016-08-23T00:58:04.874Z,17.2
2016-08-23T00:58:14.870Z,17.1
2016-08-23T00:58:24.865Z,17.2
2016-08-23T00:58:34.860Z,17.1
2016-08-23T00:58:44.856Z,17.2
2016-08-23T00:58:54.850Z,17.2
2016-08-23T00:59:04.846Z,17.1
2016-08-23T00:59:14.841Z,17.2
2016-08-23T00:59:24.834Z,17.2
2016-08-23T00:59:34.838Z,17.1
2016-08-23T00:59:44.826Z,17.1
2016-08-23T00:59:54.819Z,17.2
2016-08-23T01:00:04.815Z,17.2
2016-08-23T01:00:14.811Z,17.2
2016-08-23T01:00:24.805Z,17.2
2016-08-23T01:00:34.802Z,17.2
2016-08-23T01:00:44.796Z,17.2
2016-08-23T01:00:54.792Z,17.2
2016-08-23T01:01:04.789Z,17.2
2016-08-23T01:01:14.783Z,17.1
2016-08-23T01:01:24.777Z,17.2
2016-08-23T01:01:34.773Z,17.2
2016-08-23T01:01:44.768Z,17.2
2016-08-23T01:01:54.763Z,17.3
2016-08-23T01:02:04.759Z,17.1
2016-08-23T01:02:14.754Z,17.2
2016-08-23T01:02:24.749Z,17.1
2016-08-23T01:02:34.744Z,17.2
2016-08-23T01:02:44.740Z,17.3
2016-08-23T01:02:54.734Z,17.2
2016-08-23T01:03:04.729Z,17.1
2016-08-23T01:03:14.725Z,17.2
2016-08-23T01:03:24.719Z,17.2
2016-08-23T01:03:34.714Z,17.2
2016-08-23T01:03:44.711Z,17.2
2016-08-23T01:03:54.705Z,17.2
2016-08-23T01:04:04.700Z,17.2
2016-08-23T01:04:14.695Z,17.2
2016-08-23T01:04:24.690Z,17.2
2016-08-23T01:04:34.686Z,17.1
2016-08-23T01:04:44.680Z,17.2
2016-08-23T01:04:54.677Z,17.1
2016-08-23T01:05:04.673Z,17.1
2016-08-23T01:05:14.666Z,17.2
2016-08-23T01:05:24.662Z,17.3
2016-08-23T01:05:34.659Z,17.2
2016-08-23T01:05:44.652Z,17.2
2016-08-23T01:05:54.647Z,17.2
2016-08-23T01:06:04.641Z,17.2
2016-08-23T01:06:14.635Z,17.3
2016-08-23T01:06:24.633Z,17.3
2016-08-23T01:06:34.626Z,17.3
2016-08-23T01:06:44.623Z,17.2
2016-08-23T01:06:54.619Z,17.1
2016-08-23T01:07:04.614Z,17.2
2016-08-23T01:07:14.608Z,17.2
2016-08-23T01:07:24.603Z,17.2
2016-08-23T01:07:34.597Z,17.2
2016-08-23T01:07:44.592Z,17.3
2016-08-23T01:07:54.589Z,17.2
2016-08-23T01:08:04.585Z,17.3
2016-08-23T01:08:14.580Z,17.2
2016-08-23T01:08:24.575Z,17.2
2016-08-23T01:08:34.571Z,17.2
2016-08-23T01:08:44.565Z,17.3
2016-08-23T01:08:54.559Z,17.3
2016-08-23T01:09:04.555Z,17.3
2016-08-23T01:09:14.549Z,17.3
2016-08-23T01:09:24.546Z,17.3
2016-08-23T01:09:34.541Z,17.3
2016-08-23T01:09:44.535Z,17.3
2016-08-23T01:09:54.531Z,17.3
2016-08-23T01:10:04.525Z,17.3
2016-08-23T01:10:14.521Z,17.2
2016-08-23T01:10:24.516Z,17.3
2016-08-23T01:10:34.510Z,17.3
2016-08-23T01:10:44.505Z,17.2
2016-08-23T01:10:54.501Z,17.3
2016-08-23T01:11:04.497Z,17.3
2016-08-23T01:11:14.492Z,17.3
2016-08-23T01:11:24.487Z,17.3
2016-08-23T01:11:34.487Z,17.4
2016-08-23T01:11:44.478Z,17.3
2016-08-23T01:11:54.473Z,17.3
2016-08-23T01:12:04.467Z,17.4
2016-08-23T01:12:14.462Z,17.4
2016-08-23T01:12:24.458Z,17.3
2016-08-23T01:12:34.454Z,17.3
2016-08-23T01:12:44.447Z,17.3
2016-08-23T01:12:54.444Z,17.3
2016-08-23T01:13:04.440Z,17.4
2016-08-23T01:13:14.432Z,17.3
2016-08-23T01:13:24.428Z,17.4
2016-08-23T01:13:34.424Z,17.3
2016-08-23T01:13:44.419Z,17.4
2016-08-23T01:13:54.414Z,17.4
2016-08-23T01:14:04.409Z,17.4
2016-08-23T01:14:14.405Z,17.4
2016-08-23T01:14:24.400Z,17.4
2016-08-23T01:14:34.396Z,17.4
2016-08-23T01:14:44.391Z,17.3
2016-08-23T01:14:54.386Z,17.3
2016-08-23T01:15:04.381Z,17.4
2016-08-23T01:15:14.376Z,17.4
2016-08-23T01:15:24.370Z,17.4
2016-08-23T01:15:34.367Z,17.4
2016-08-23T01:15:44.362Z,17.4
2016-08-23T01:15:54.357Z,17.4
2016-08-23T01:16:04.351Z,17.4
2016-08-23T01:16:14.346Z,17.4
2016-08-23T01:16:24.342Z,17.4
2016-08-23T01:16:34.338Z,17.3
2016-08-23T01:16:44.331Z,17.4
2016-08-23T01:16:54.327Z,17.4
2016-08-23T01:17:04.323Z,17.3
2016-08-23T01:17:14.318Z,17.4
2016-08-23T01:17:24.312Z,17.3
2016-08-23T01:17:34.309Z,17.4
2016-08-23T01:17:44.303Z,17.4
2016-08-23T01:17:54.299Z,17.4
2016-08-23T01:18:04.293Z,17.4
2016-08-23T01:18:14.289Z,17.3
2016-08-23T01:18:24.283Z,17.3
2016-08-23T01:18:34.279Z,17.4
2016-08-23T01:18:44.275Z,17.4
2016-08-23T01:18:54.270Z,17.4
2016-08-23T01:19:04.265Z,17.4
2016-08-23T01:19:14.260Z,17.4
2016-08-23T01:19:24.255Z,17.3
2016-08-23T01:19:34.250Z,17.4
2016-08-23T01:19:44.245Z,17.3
2016-08-23T01:19:54.240Z,17.4
2016-08-23T01:20:04.235Z,17.4
2016-08-23T01:20:14.232Z,17.4
2016-08-23T01:20:24.227Z,17.3
2016-08-23T01:20:34.221Z,17.4
2016-08-23T01:20:44.215Z,17.4
2016-08-23T01:20:54.211Z,17.5
2016-08-23T01:21:04.207Z,17.4
2016-08-23T01:21:14.203Z,17.3
2016-08-23T01:21:24.196Z,17.4
2016-08-23T01:21:34.194Z,17.4
2016-08-23T01:21:44.188Z,17.5
2016-08-23T01:21:54.183Z,17.4
2016-08-23T01:22:04.177Z,17.4
2016-08-23T01:22:14.173Z,17.4
2016-08-23T01:22:24.168Z,17.4
2016-08-23T01:22:34.162Z,17.4
2016-08-23T01:22:44.160Z,17.4
2016-08-23T01:22:54.153Z,17.4
2016-08-23T01:23:04.147Z,17.4
2016-08-23T01:23:14.143Z,17.4
2016-08-23T01:23:24.138Z,17.4
2016-08-23T01:23:34.132Z,17.4
2016-08-23T01:23:44.131Z,17.4
2016-08-23T01:23:54.124Z,17.3
2016-08-23T01:24:04.120Z,17.4
2016-08-23T01:24:14.117Z,17.4
2016-08-23T01:24:24.111Z,17.4
2016-08-23T01:24:34.105Z,17.3
2016-08-23T01:24:44.100Z,17.4
2016-08-23T01:24:54.095Z,17.3
2016-08-23T01:25:04.093Z,17.4
2016-08-23T01:25:14.086Z,17.4
2016-08-23T01:25:24.081Z,17.4
2016-08-23T01:25:34.077Z,17.4
2016-08-23T01:25:44.072Z,17.4
2016-08-23T01:25:54.065Z,17.4
2016-08-23T01:26:04.060Z,17.5
2016-08-23T01:26:14.062Z,17.5
2016-08-23T01:26:24.064Z,17.4
2016-08-23T01:26:34.046Z,17.4
2016-08-23T01:26:44.043Z,17.4
2016-08-23T01:26:54.039Z,17.4
2016-08-23T01:27:04.033Z,17.4
2016-08-23T01:27:14.032Z,17.4
2016-08-23T01:27:24.023Z,17.4
2016-08-23T01:27:34.018Z,17.4
2016-08-23T01:27:44.014Z,17.4
2016-08-23T01:27:54.008Z,17.4
2016-08-23T01:28:04.006Z,17.4
2016-08-23T01:28:14.000Z,17.4
2016-08-23T01:28:23.994Z,17.4
2016-08-23T01:28:33.990Z,17.4
2016-08-23T01:28:43.984Z,17.4
2016-08-23T01:28:53.979Z,17.4
2016-08-23T01:29:03.974Z,17.5
2016-08-23T01:29:13.970Z,17.4
2016-08-23T01:29:23.964Z,17.4
2016-08-23T01:29:33.959Z,17.4
2016-08-23T01:29:43.956Z,17.4
2016-08-23T01:29:53.950Z,17.4
2016-08-23T01:30:03.945Z,17.5
2016-08-23T01:30:13.940Z,17.4
2016-08-23T01:30:23.936Z,17.4
2016-08-23T01:30:33.930Z,17.4
2016-08-23T01:30:43.926Z,17.4
2016-08-23T01:30:53.921Z,17.4
2016-08-23T01:31:03.917Z,17.4
2016-08-23T01:31:13.916Z,17.4
2016-08-23T01:31:23.907Z,17.4
2016-08-23T01:31:33.903Z,17.5
2016-08-23T01:31:43.898Z,17.5
2016-08-23T01:31:53.893Z,17.4
2016-08-23T01:32:03.887Z,17.4
2016-08-23T01:32:13.883Z,17.5
2016-08-23T01:32:23.884Z,17.4
2016-08-23T01:32:33.885Z,17.4
2016-08-23T01:32:43.868Z,17.4
2016-08-23T01:32:53.863Z,17.4
2016-08-23T01:33:03.859Z,17.5
2016-08-23T01:33:13.854Z,17.4
2016-08-23T01:33:23.850Z,17.4
2016-08-23T01:33:33.843Z,17.4
2016-08-23T01:33:43.839Z,17.4
2016-08-23T01:33:53.834Z,17.4
2016-08-23T01:34:03.830Z,17.4
2016-08-23T01:34:13.825Z,17.4
2016-08-23T01:34:23.823Z,17.4
2016-08-23T01:34:33.816Z,17.4
2016-08-23T01:34:43.811Z,17.4
2016-08-23T01:34:53.806Z,17.4
2016-08-23T01:35:03.800Z,17.4
2016-08-23T01:35:13.797Z,17.5
2016-08-23T01:35:23.791Z,17.5
2016-08-23T01:35:33.787Z,17.4
2016-08-23T01:35:43.781Z,17.4
2016-08-23T01:35:53.775Z,17.5
2016-08-23T01:36:03.772Z,17.5
2016-08-23T01:36:13.766Z,17.5
2016-08-23T01:36:23.762Z,17.5
2016-08-23T01:36:33.757Z,17.4
2016-08-23T01:36:43.750Z,17.4
2016-08-23T01:36:53.752Z,17.4
2016-08-23T01:37:03.742Z,17.4
2016-08-23T01:37:13.738Z,17.4
2016-08-23T01:37:23.734Z,17.5
2016-08-23T01:37:33.731Z,17.4
2016-08-23T01:37:43.724Z,17.4
2016-08-23T01:37:53.719Z,17.4
2016-08-23T01:38:03.714Z,17.4
2016-08-23T01:38:13.710Z,17.4
2016-08-23T01:38:23.706Z,17.5
2016-08-23T01:38:33.700Z,17.4
2016-08-23T01:38:43.694Z,17.4
2016-08-23T01:38:53.690Z,17.4
2016-08-23T01:39:03.685Z,17.4
2016-08-23T01:39:13.681Z,17.4
2016-08-23T01:39:23.676Z,17.5
2016-08-23T01:39:33.670Z,17.5
2016-08-23T01:39:43.666Z,17.4
2016-08-23T01:39:53.659Z,17.4
2016-08-23T01:40:03.655Z,17.4
2016-08-23T01:40:13.650Z,17.5
2016-08-23T01:40:23.646Z,17.5
2016-08-23T01:40:33.642Z,17.5
2016-08-23T01:40:43.637Z,17.5
2016-08-23T01:40:53.630Z,17.4
2016-08-23T01:41:03.628Z,17.5
2016-08-23T01:41:13.628Z,17.5
2016-08-23T01:41:23.617Z,17.5
2016-08-23T01:41:33.614Z,17.5
2016-08-23T01:41:43.608Z,17.4
2016-08-23T01:41:53.602Z,17.4
2016-08-23T01:42:03.597Z,17.5
2016-08-23T01:42:13.599Z,17.4
2016-08-23T01:42:23.589Z,17.5
2016-08-23T01:42:33.584Z,17.5
2016-08-23T01:42:43.579Z,17.5
2016-08-23T01:42:53.573Z,17.5
2016-08-23T01:43:03.574Z,17.5
2016-08-23T01:43:13.565Z,17.5
2016-08-23T01:43:23.561Z,17.5
2016-08-23T01:43:33.555Z,17.5
2016-08-23T01:43:43.551Z,17.5
2016-08-23T01:43:53.543Z,17.5
2016-08-23T01:44:03.541Z,17.4
2016-08-23T01:44:13.535Z,17.5
2016-08-23T01:44:23.531Z,17.4
2016-08-23T01:44:33.526Z,17.5
2016-08-23T01:44:43.521Z,17.5
2016-08-23T01:44:53.518Z,17.4
2016-08-23T01:45:03.512Z,17.5
2016-08-23T01:45:13.506Z,17.4
2016-08-23T01:45:23.505Z,17.5
2016-08-23T01:45:33.497Z,17.4
2016-08-23T01:45:43.492Z,17.5
2016-08-23T01:45:53.487Z,17.5
2016-08-23T01:46:03.481Z,17.4
2016-08-23T01:46:13.478Z,17.5
2016-08-23T01:46:23.472Z,17.4
2016-08-23T01:46:33.468Z,17.5
2016-08-23T01:46:43.462Z,17.5
2016-08-23T01:46:53.459Z,17.4
2016-08-23T01:47:03.453Z,17.5
2016-08-23T01:47:13.449Z,17.5
2016-08-23T01:47:23.443Z,17.5
2016-08-23T01:47:33.438Z,17.4
2016-08-23T01:47:43.434Z,17.4
2016-08-23T01:47:53.431Z,17.4
2016-08-23T01:48:03.425Z,17.5
2016-08-23T01:48:13.420Z,17.6
2016-08-23T01:48:23.415Z,17.5
2016-08-23T01:48:33.410Z,17.5
2016-08-23T01:48:43.405Z,17.5
2016-08-23T01:48:53.400Z,17.5
2016-08-23T01:49:03.396Z,17.6
2016-08-23T01:49:13.389Z,17.5
2016-08-23T01:49:23.387Z,17.5
2016-08-23T01:49:33.381Z,17.5
2016-08-23T01:49:43.376Z,17.4
2016-08-23T01:49:53.372Z,17.5
2016-08-23T01:50:03.367Z,17.4
2016-08-23T01:50:13.362Z,17.5
2016-08-23T01:50:23.356Z,17.4
2016-08-23T01:50:33.351Z,17.5
2016-08-23T01:50:43.347Z,17.5
2016-08-23T01:50:53.343Z,17.5
2016-08-23T01:51:03.337Z,17.5
2016-08-23T01:51:13.333Z,17.5
2016-08-23T01:51:23.328Z,17.5
2016-08-23T01:51:33.322Z,17.4
2016-08-23T01:51:43.320Z,17.5
2016-08-23T01:51:53.313Z,17.5
2016-08-23T01:52:03.308Z,17.5
2016-08-23T01:52:13.304Z,17.5
2016-08-23T01:52:23.298Z,17.5
2016-08-23T01:52:33.295Z,17.5
2016-08-23T01:52:43.289Z,17.5
2016-08-23T01:52:53.284Z,17.4
2016-08-23T01:53:03.280Z,17.5
2016-08-23T01:53:13.273Z,17.5
2016-08-23T01:53:23.271Z,17.5
2016-08-23T01:53:33.265Z,17.5
2016-08-23T01:53:43.259Z,17.5
2016-08-23T01:53:53.254Z,17.5
2016-08-23T01:54:03.250Z,17.5
2016-08-23T01:54:13.246Z,17.5
2016-08-23T01:54:23.242Z,17.5
2016-08-23T01:54:33.237Z,17.5
2016-08-23T01:54:43.232Z,17.5
2016-08-23T01:54:53.229Z,17.4
2016-08-23T01:55:03.221Z,17.4
2016-08-23T01:55:13.216Z,17.4
2016-08-23T01:55:23.212Z,17.6
2016-08-23T01:55:33.206Z,17.5
2016-08-23T01:55:43.202Z,17.5
2016-08-23T01:55:53.204Z,17.4
2016-08-23T01:56:03.192Z,17.5
2016-08-23T01:56:13.188Z,17.5
2016-08-23T01:56:23.182Z,17.5
2016-08-23T01:56:33.178Z,17.5
2016-08-23T01:56:43.173Z,17.5
2016-08-23T01:56:53.168Z,17.5
2016-08-23T01:57:03.163Z,17.5
2016-08-23T01:57:13.158Z,17.5
2016-08-23T01:57:23.154Z,17.5
2016-08-23T01:57:33.151Z,17.5
2016-08-23T01:57:43.145Z,17.5
2016-08-23T01:57:53.142Z,17.5
2016-08-23T01:58:03.135Z,17.5
2016-08-23T01:58:13.129Z,17.4
2016-08-23T01:58:23.126Z,17.5
2016-08-23T01:58:33.121Z,17.5
2016-08-23T01:58:43.116Z,17.5
2016-08-23T01:58:53.112Z,17.5
2016-08-23T01:59:03.107Z,17.4
2016-08-23T01:59:13.101Z,17.5
2016-08-23T01:59:23.094Z,17.5
2016-08-23T01:59:33.092Z,17.5
2016-08-23T01:59:43.087Z,17.4
2016-08-23T01:59:53.080Z,17.5
2016-08-23T02:00:03.077Z,17.5
2016-08-23T02:00:13.073Z,17.5
2016-08-23T02:00:23.068Z,17.5
2016-08-23T02:00:33.064Z,17.5
2016-08-23T02:00:43.058Z,17.5
2016-08-23T02:00:53.052Z,17.4
2016-08-23T02:01:03.050Z,17.5
2016-08-23T02:01:13.043Z,17.5
2016-08-23T02:01:23.041Z,17.5
2016-08-23T02:01:33.034Z,17.5
2016-08-23T02:01:43.030Z,17.4
2016-08-23T02:01:53.022Z,17.5
2016-08-23T02:02:03.018Z,17.5
2016-08-23T02:02:13.015Z,17.5
2016-08-23T02:02:23.010Z,17.5
2016-08-23T02:02:33.005Z,17.5
2016-08-23T02:02:42.999Z,17.5
2016-08-23T02:02:52.994Z,17.5
2016-08-23T02:03:02.990Z,17.5
2016-08-23T02:03:12.984Z,17.5
2016-08-23T02:03:22.986Z,17.5
2016-08-23T02:03:32.976Z,17.5
2016-08-23T02:03:42.972Z,17.5
2016-08-23T02:03:52.966Z,17.5
2016-08-23T02:04:02.962Z,17.5
2016-08-23T02:04:12.957Z,17.5
2016-08-23T02:04:22.952Z,17.5
2016-08-23T02:04:32.946Z,17.5
2016-08-23T02:04:42.942Z,17.5
2016-08-23T02:04:52.936Z,17.5
2016-08-23T02:05:02.933Z,17.5
2016-08-23T02:05:12.927Z,17.5
2016-08-23T02:05:22.923Z,17.5
2016-08-23T02:05:32.919Z,17.5
2016-08-23T02:05:42.913Z,17.5
2016-08-23T02:05:52.909Z,17.5
2016-08-23T02:06:02.902Z,17.5
2016-08-23T02:06:12.899Z,17.5
2016-08-23T02:06:22.894Z,17.5
2016-08-23T02:06:32.888Z,17.5
2016-08-23T02:06:42.884Z,17.5
2016-08-23T02:06:52.880Z,17.5
2016-08-23T02:07:02.875Z,17.5
2016-08-23T02:07:12.870Z,17.5
2016-08-23T02:07:22.864Z,17.5
2016-08-23T02:07:32.860Z,17.5
2016-08-23T02:07:42.856Z,17.5
2016-08-23T02:07:52.851Z,17.5
2016-08-23T02:08:02.846Z,17.5
2016-08-23T02:08:12.842Z,17.4
2016-08-23T02:08:22.836Z,17.5
2016-08-23T02:08:32.832Z,17.5
2016-08-23T02:08:42.825Z,17.5
2016-08-23T02:08:52.822Z,17.5
2016-08-23T02:09:02.817Z,17.5
2016-08-23T02:09:12.816Z,17.5
2016-08-23T02:09:22.807Z,17.5
2016-08-23T02:09:32.803Z,17.5
2016-08-23T02:09:42.798Z,17.5
2016-08-23T02:09:52.792Z,17.5
2016-08-23T02:10:02.792Z,17.5
2016-08-23T02:10:12.783Z,17.5
2016-08-23T02:10:22.779Z,17.5
2016-08-23T02:10:32.772Z,17.5
2016-08-23T02:10:42.768Z,17.5
2016-08-23T02:10:52.764Z,17.5
2016-08-23T02:11:02.759Z,17.5
2016-08-23T02:11:12.756Z,17.5
2016-08-23T02:11:22.749Z,17.5
2016-08-23T02:11:32.745Z,17.5
2016-08-23T02:11:42.740Z,17.5
2016-08-23T02:11:52.735Z,17.5
2016-08-23T02:12:02.730Z,17.5
2016-08-23T02:12:12.726Z,17.5
2016-08-23T02:12:22.720Z,17.5
2016-08-23T02:12:32.716Z,17.5
2016-08-23T02:12:42.710Z,17.5
2016-08-23T02:12:52.706Z,17.5
2016-08-23T02:13:02.701Z,17.5
2016-08-23T02:13:12.696Z,17.5
2016-08-23T02:13:22.690Z,17.5
2016-08-23T02:13:32.687Z,17.5
2016-08-23T02:13:42.682Z,17.5
2016-08-23T02:13:52.678Z,17.5